Dockton, Washington
Current Conditions -  °F | °C
As of 1:53 AM on Tuesday 21 Oct 2014 (Local Time) from KSEA Reporting Station
Light Rain Light Rain  
Wind Chill: 54°   Ceiling: 4100
Heat Index: 54°   Visibility: 10mi
Dew Point: 50°   Wind: 8mph
Humidity: 86%   Direction: 150°SSE
Pressure: 29.83"   Gusts: NA
Location:  47.4122°N, 122.472°W
Report Text: KSEA 210853Z 15007KT 10SM -RA OVC041 12/10 A2983 RMK AO2 RAB52 SLP107 P0000 60000 T01220100 53007
Loading
Personal Weather Stations






























Interactive Weather Map
Tropical Storm Tracking
New forecast layout! Learn more

10-Day Weather Forecast

Advertisements
Track Severe Weather on mobile